< Typhoon 200016 2000 Season Typhoon 200018 >
Typhoon 200017 (SONAMU)
General InformationTrack Information on Google MapsDetailed Wind InformationList of All Images || Disaster Info.ResourceGoogle EarthGE AnimationAtom FeedGeoJSON
Detalied Best Track (Time Zone = UTC)
Year Month Day Hour Lat. Long. Pressure (hPa) Wind (kt) Class Image Chart
2000 9 14 06 21.9 139.5 998 0 2 Image Chart
2000 9 14 12 22.1 140.0 1000 0 2 Image Chart
2000 9 14 18 22.7 140.7 1000 0 2 Image Chart
2000 9 15 00 23.3 141.0 1000 0 2 Image Chart
2000 9 15 03 23.4 141.0 996 35 3 Image Chart
2000 9 15 06 23.6 141.0 994 40 3 Image Chart
2000 9 15 12 23.9 141.2 992 45 3 Image Chart
2000 9 15 15 24.0 141.3 992 45 3 Image Chart
2000 9 15 18 24.2 141.5 990 45 3 Image Chart
2000 9 15 21 24.4 141.8 990 45 3 Image Chart
2000 9 16 00 24.9 141.8 990 45 3 Image Chart
2000 9 16 03 25.5 141.8 990 45 3 Image Chart
2000 9 16 06 26.0 141.7 990 45 3 Image Chart
2000 9 16 09 26.6 141.7 990 45 3 Image Chart
2000 9 16 12 27.3 141.6 990 45 3 Image Chart
2000 9 16 15 28.3 141.6 990 45 3 Image Chart
2000 9 16 18 29.2 141.6 990 45 3 Image Chart
2000 9 16 21 30.1 141.5 990 45 3 Image Chart
2000 9 17 00 30.9 141.5 985 50 4 Image Chart
2000 9 17 03 32.1 141.8 980 55 4 Image Chart
2000 9 17 06 33.3 142.1 980 55 4 Image Chart
2000 9 17 09 34.6 142.6 980 55 4 Image Chart
2000 9 17 12 35.9 143.0 980 55 4 Image Chart
2000 9 17 18 38.8 144.3 980 55 4 Image Chart
2000 9 18 00 41.9 146.5 985 50 4 Image Chart
2000 9 18 06 44.7 149.0 988 0 6 Image Chart
2000 9 18 12 47.1 153.6 990 0 6 Image Chart
2000 9 18 18 48.9 157.5 996 0 6 Image Chart
2000 9 19 00 50.5 163.6 994 0 6 Image Chart
2000 9 19 06 52.5 169.7 992 0 6 Image Chart
2000 9 19 12 54.5 174.8 988 0 6 Image Chart
2000 9 19 18 55.4 176.5 986 0 6 Image Chart
2000 9 20 00 56.1 178.5 984 0 6 Image Chart
2000 9 20 06 56.4 179.0 984 0 6 Image Chart
2000 9 20 12 57.0 180.5 986 0 6 Image Chart
Japan Meteorological Agency Best Track Data | Correction Date : 2001-12-21
< Typhoon 200016 2000 Season Typhoon 200018 >

Help